sensor_id;sensor_type;location;lat;lon;timestamp;temperature;humidity
15717;DHT22;7960;50.908;4.204;2023-09-12T00:01:25;21.30;99.90
15717;DHT22;7960;50.908;4.204;2023-09-12T00:03:52;21.30;99.90
15717;DHT22;7960;50.908;4.204;2023-09-12T00:06:19;21.50;99.90
15717;DHT22;7960;50.908;4.204;2023-09-12T00:08:46;21.60;99.90
15717;DHT22;7960;50.908;4.204;2023-09-12T00:11:13;21.50;99.90
15717;DHT22;7960;50.908;4.204;2023-09-12T00:13:41;21.60;99.90
15717;DHT22;7960;50.908;4.204;2023-09-12T00:16:09;21.60;99.90
15717;DHT22;7960;50.908;4.204;2023-09-12T00:18:36;21.60;99.90
15717;DHT22;7960;50.908;4.204;2023-09-12T00:21:04;21.60;99.90
15717;DHT22;7960;50.908;4.204;2023-09-12T00:23:31;21.60;99.90
15717;DHT22;7960;50.908;4.204;2023-09-12T00:25:58;21.60;99.90
15717;DHT22;7960;50.908;4.204;2023-09-12T00:28:25;21.60;99.90
15717;DHT22;7960;50.908;4.204;2023-09-12T00:30:52;21.60;99.90
15717;DHT22;7960;50.908;4.204;2023-09-12T00:33:20;21.60;99.90
15717;DHT22;7960;50.908;4.204;2023-09-12T00:35:47;21.60;99.90
15717;DHT22;7960;50.908;4.204;2023-09-12T00:38:14;21.60;99.90
15717;DHT22;7960;50.908;4.204;2023-09-12T00:40:41;21.40;99.90
15717;DHT22;7960;50.908;4.204;2023-09-12T00:43:09;21.40;99.90
15717;DHT22;7960;50.908;4.204;2023-09-12T00:45:37;21.40;99.90
15717;DHT22;7960;50.908;4.204;2023-09-12T00:48:04;21.40;99.90
15717;DHT22;7960;50.908;4.204;2023-09-12T00:50:34;21.50;99.90
15717;DHT22;7960;50.908;4.204;2023-09-12T00:53:03;21.50;99.90
15717;DHT22;7960;50.908;4.204;2023-09-12T00:55:32;21.20;99.90
15717;DHT22;7960;50.908;4.204;2023-09-12T00:58:00;21.30;99.90
15717;DHT22;7960;50.908;4.204;2023-09-12T01:00:28;21.30;99.90
15717;DHT22;7960;50.908;4.204;2023-09-12T01:02:55;21.50;99.90
15717;DHT22;7960;50.908;4.204;2023-09-12T01:05:22;21.40;99.90
15717;DHT22;7960;50.908;4.204;2023-09-12T01:07:51;21.40;99.90
15717;DHT22;7960;50.908;4.204;2023-09-12T01:10:18;21.40;99.90
15717;DHT22;7960;50.908;4.204;2023-09-12T01:12:45;21.30;99.90
15717;DHT22;7960;50.908;4.204;2023-09-12T01:15:12;20.90;99.90
15717;DHT22;7960;50.908;4.204;2023-09-12T01:17:41;21.00;99.90
15717;DHT22;7960;50.908;4.204;2023-09-12T01:20:11;21.10;99.90
15717;DHT22;7960;50.908;4.204;2023-09-12T01:26:12;21.10;99.90
15717;DHT22;7960;50.908;4.204;2023-09-12T01:28:47;21.30;99.90
15717;DHT22;7960;50.908;4.204;2023-09-12T01:31:15;21.20;99.90
15717;DHT22;7960;50.908;4.204;2023-09-12T01:33:43;20.90;99.90
15717;DHT22;7960;50.908;4.204;2023-09-12T01:36:10;20.80;99.90
15717;DHT22;7960;50.908;4.204;2023-09-12T01:38:37;20.70;99.90
15717;DHT22;7960;50.908;4.204;2023-09-12T01:41:05;20.80;99.90
15717;DHT22;7960;50.908;4.204;2023-09-12T01:43:33;20.70;99.90
15717;DHT22;7960;50.908;4.204;2023-09-12T01:46:04;20.70;99.90
15717;DHT22;7960;50.908;4.204;2023-09-12T01:48:33;20.70;99.90
15717;DHT22;7960;50.908;4.204;2023-09-12T01:51:01;20.70;99.90
15717;DHT22;7960;50.908;4.204;2023-09-12T01:53:29;20.70;99.90
15717;DHT22;7960;50.908;4.204;2023-09-12T01:55:56;20.70;99.90
15717;DHT22;7960;50.908;4.204;2023-09-12T01:58:25;20.70;99.90
15717;DHT22;7960;50.908;4.204;2023-09-12T02:00:52;20.70;99.90
15717;DHT22;7960;50.908;4.204;2023-09-12T02:03:21;20.80;99.90
15717;DHT22;7960;50.908;4.204;2023-09-12T02:05:48;20.90;99.90
15717;DHT22;7960;50.908;4.204;2023-09-12T02:08:15;21.00;99.90
15717;DHT22;7960;50.908;4.204;2023-09-12T02:10:42;21.10;99.90
15717;DHT22;7960;50.908;4.204;2023-09-12T02:13:09;20.70;99.90
15717;DHT22;7960;50.908;4.204;2023-09-12T02:15:36;20.50;99.90
15717;DHT22;7960;50.908;4.204;2023-09-12T02:18:03;20.50;99.90
15717;DHT22;7960;50.908;4.204;2023-09-12T02:20:32;20.30;99.90
15717;DHT22;7960;50.908;4.204;2023-09-12T02:22:59;20.30;99.90
15717;DHT22;7960;50.908;4.204;2023-09-12T02:25:26;20.40;99.90
15717;DHT22;7960;50.908;4.204;2023-09-12T02:27:53;20.40;99.90
15717;DHT22;7960;50.908;4.204;2023-09-12T02:30:20;20.50;99.90
15717;DHT22;7960;50.908;4.204;2023-09-12T02:32:46;20.40;99.90
15717;DHT22;7960;50.908;4.204;2023-09-12T02:35:13;20.40;99.90
15717;DHT22;7960;50.908;4.204;2023-09-12T02:37:42;20.30;99.90
15717;DHT22;7960;50.908;4.204;2023-09-12T02:40:09;20.40;99.90
15717;DHT22;7960;50.908;4.204;2023-09-12T02:42:37;20.60;99.90
15717;DHT22;7960;50.908;4.204;2023-09-12T02:45:05;20.50;99.90
15717;DHT22;7960;50.908;4.204;2023-09-12T02:47:32;20.40;99.90
15717;DHT22;7960;50.908;4.204;2023-09-12T02:49:59;20.40;99.90
15717;DHT22;7960;50.908;4.204;2023-09-12T02:52:26;20.40;99.90
15717;DHT22;7960;50.908;4.204;2023-09-12T02:54:54;20.60;99.90
15717;DHT22;7960;50.908;4.204;2023-09-12T02:57:21;20.30;99.90
15717;DHT22;7960;50.908;4.204;2023-09-12T02:59:48;20.10;99.90
15717;DHT22;7960;50.908;4.204;2023-09-12T03:02:15;19.90;99.90
15717;DHT22;7960;50.908;4.204;2023-09-12T03:04:42;19.80;99.90
15717;DHT22;7960;50.908;4.204;2023-09-12T03:07:09;19.90;99.90
15717;DHT22;7960;50.908;4.204;2023-09-12T03:09:36;19.90;99.90
15717;DHT22;7960;50.908;4.204;2023-09-12T03:12:06;19.60;99.90
15717;DHT22;7960;50.908;4.204;2023-09-12T03:14:33;19.50;99.90
15717;DHT22;7960;50.908;4.204;2023-09-12T03:17:00;19.60;99.90
15717;DHT22;7960;50.908;4.204;2023-09-12T03:19:27;19.90;99.90
15717;DHT22;7960;50.908;4.204;2023-09-12T03:21:53;20.20;99.90
15717;DHT22;7960;50.908;4.204;2023-09-12T03:24:20;20.20;99.90
15717;DHT22;7960;50.908;4.204;2023-09-12T03:26:50;20.20;99.90
15717;DHT22;7960;50.908;4.204;2023-09-12T03:29:18;20.40;99.90
15717;DHT22;7960;50.908;4.204;2023-09-12T03:31:45;20.50;99.90
15717;DHT22;7960;50.908;4.204;2023-09-12T03:34:12;20.50;99.90
15717;DHT22;7960;50.908;4.204;2023-09-12T03:36:39;20.30;99.90
15717;DHT22;7960;50.908;4.204;2023-09-12T03:39:06;20.40;99.90
15717;DHT22;7960;50.908;4.204;2023-09-12T03:41:34;20.50;99.90
15717;DHT22;7960;50.908;4.204;2023-09-12T03:44:01;20.60;99.90
15717;DHT22;7960;50.908;4.204;2023-09-12T03:46:29;20.70;99.90
15717;DHT22;7960;50.908;4.204;2023-09-12T03:48:56;20.70;99.90
15717;DHT22;7960;50.908;4.204;2023-09-12T03:51:23;20.40;99.90
15717;DHT22;7960;50.908;4.204;2023-09-12T03:53:50;20.60;99.90
15717;DHT22;7960;50.908;4.204;2023-09-12T03:56:17;20.70;99.90
15717;DHT22;7960;50.908;4.204;2023-09-12T03:58:45;20.60;99.90
15717;DHT22;7960;50.908;4.204;2023-09-12T04:01:12;20.40;99.90
15717;DHT22;7960;50.908;4.204;2023-09-12T04:03:40;20.30;99.90
15717;DHT22;7960;50.908;4.204;2023-09-12T04:06:07;20.40;99.90
15717;DHT22;7960;50.908;4.204;2023-09-12T04:08:35;20.40;99.90
15717;DHT22;7960;50.908;4.204;2023-09-12T04:11:02;20.40;99.90
15717;DHT22;7960;50.908;4.204;2023-09-12T04:13:29;20.50;99.90
15717;DHT22;7960;50.908;4.204;2023-09-12T04:15:56;20.50;99.90
15717;DHT22;7960;50.908;4.204;2023-09-12T04:18:23;20.60;99.90
15717;DHT22;7960;50.908;4.204;2023-09-12T04:20:51;20.60;99.90
15717;DHT22;7960;50.908;4.204;2023-09-12T04:23:21;20.40;99.90
15717;DHT22;7960;50.908;4.204;2023-09-12T04:25:48;20.50;99.90
15717;DHT22;7960;50.908;4.204;2023-09-12T04:28:14;20.40;99.90
15717;DHT22;7960;50.908;4.204;2023-09-12T04:30:41;20.20;99.90
15717;DHT22;7960;50.908;4.204;2023-09-12T04:33:08;20.30;99.90
15717;DHT22;7960;50.908;4.204;2023-09-12T04:35:35;20.30;99.90
15717;DHT22;7960;50.908;4.204;2023-09-12T04:38:04;20.30;99.90
15717;DHT22;7960;50.908;4.204;2023-09-12T04:40:31;20.10;99.90
15717;DHT22;7960;50.908;4.204;2023-09-12T04:42:58;19.90;99.90
15717;DHT22;7960;50.908;4.204;2023-09-12T04:45:25;19.80;99.90
15717;DHT22;7960;50.908;4.204;2023-09-12T04:47:52;19.80;99.90
15717;DHT22;7960;50.908;4.204;2023-09-12T04:50:19;20.00;99.90
15717;DHT22;7960;50.908;4.204;2023-09-12T04:52:46;19.90;99.90
15717;DHT22;7960;50.908;4.204;2023-09-12T04:55:14;20.00;99.90
15717;DHT22;7960;50.908;4.204;2023-09-12T04:57:41;20.00;99.90
15717;DHT22;7960;50.908;4.204;2023-09-12T05:00:09;20.00;99.90
15717;DHT22;7960;50.908;4.204;2023-09-12T05:02:36;20.10;99.90
15717;DHT22;7960;50.908;4.204;2023-09-12T05:05:04;20.10;99.90
15717;DHT22;7960;50.908;4.204;2023-09-12T05:07:31;20.00;99.90
15717;DHT22;7960;50.908;4.204;2023-09-12T05:09:59;19.70;99.90
15717;DHT22;7960;50.908;4.204;2023-09-12T05:12:27;19.70;99.90
15717;DHT22;7960;50.908;4.204;2023-09-12T05:14:54;19.60;99.90
15717;DHT22;7960;50.908;4.204;2023-09-12T05:17:21;19.50;99.90
15717;DHT22;7960;50.908;4.204;2023-09-12T05:19:48;19.50;99.90
15717;DHT22;7960;50.908;4.204;2023-09-12T05:22:15;19.60;99.90
15717;DHT22;7960;50.908;4.204;2023-09-12T05:24:42;19.50;99.90
15717;DHT22;7960;50.908;4.204;2023-09-12T05:27:10;19.60;99.90
15717;DHT22;7960;50.908;4.204;2023-09-12T05:29:38;19.60;99.90
15717;DHT22;7960;50.908;4.204;2023-09-12T05:32:06;19.70;99.90
15717;DHT22;7960;50.908;4.204;2023-09-12T05:34:33;19.90;99.90
15717;DHT22;7960;50.908;4.204;2023-09-12T05:37:00;19.70;99.90
15717;DHT22;7960;50.908;4.204;2023-09-12T05:39:26;19.50;99.90
15717;DHT22;7960;50.908;4.204;2023-09-12T05:41:53;19.40;99.90
15717;DHT22;7960;50.908;4.204;2023-09-12T05:44:20;19.60;99.90
15717;DHT22;7960;50.908;4.204;2023-09-12T05:46:49;19.70;99.90
15717;DHT22;7960;50.908;4.204;2023-09-12T05:49:15;19.70;99.90
15717;DHT22;7960;50.908;4.204;2023-09-12T05:51:42;19.90;99.90
15717;DHT22;7960;50.908;4.204;2023-09-12T05:54:10;20.10;99.90
15717;DHT22;7960;50.908;4.204;2023-09-12T05:56:39;20.10;99.90
15717;DHT22;7960;50.908;4.204;2023-09-12T05:59:06;20.00;99.90
15717;DHT22;7960;50.908;4.204;2023-09-12T06:01:32;19.90;99.90
15717;DHT22;7960;50.908;4.204;2023-09-12T06:04:01;19.90;99.90
15717;DHT22;7960;50.908;4.204;2023-09-12T06:06:28;19.90;99.90
15717;DHT22;7960;50.908;4.204;2023-09-12T06:08:55;19.80;99.90
15717;DHT22;7960;50.908;4.204;2023-09-12T06:11:23;19.70;99.90
15717;DHT22;7960;50.908;4.204;2023-09-12T06:13:50;19.60;99.90
15717;DHT22;7960;50.908;4.204;2023-09-12T06:16:17;19.60;99.90
15717;DHT22;7960;50.908;4.204;2023-09-12T06:18:44;19.60;99.90
15717;DHT22;7960;50.908;4.204;2023-09-12T06:21:12;19.80;99.90
15717;DHT22;7960;50.908;4.204;2023-09-12T06:23:39;19.90;99.90
15717;DHT22;7960;50.908;4.204;2023-09-12T06:26:06;20.00;99.90
15717;DHT22;7960;50.908;4.204;2023-09-12T06:28:33;20.00;99.90
15717;DHT22;7960;50.908;4.204;2023-09-12T06:31:00;19.90;99.90
15717;DHT22;7960;50.908;4.204;2023-09-12T06:33:27;20.10;99.90
15717;DHT22;7960;50.908;4.204;2023-09-12T06:35:54;20.10;99.90
15717;DHT22;7960;50.908;4.204;2023-09-12T06:38:22;20.10;99.90
15717;DHT22;7960;50.908;4.204;2023-09-12T06:40:49;20.10;99.90
15717;DHT22;7960;50.908;4.204;2023-09-12T06:43:17;20.10;99.90
15717;DHT22;7960;50.908;4.204;2023-09-12T06:45:45;20.10;99.90
15717;DHT22;7960;50.908;4.204;2023-09-12T06:48:11;20.20;99.90
15717;DHT22;7960;50.908;4.204;2023-09-12T06:50:38;20.30;99.90
15717;DHT22;7960;50.908;4.204;2023-09-12T06:53:05;20.30;99.90
15717;DHT22;7960;50.908;4.204;2023-09-12T06:55:34;20.20;99.90
15717;DHT22;7960;50.908;4.204;2023-09-12T06:58:01;20.30;99.90
15717;DHT22;7960;50.908;4.204;2023-09-12T07:00:29;20.40;99.90
15717;DHT22;7960;50.908;4.204;2023-09-12T07:02:56;20.50;99.90
15717;DHT22;7960;50.908;4.204;2023-09-12T07:05:23;20.60;99.90
15717;DHT22;7960;50.908;4.204;2023-09-12T07:07:51;20.50;99.90
15717;DHT22;7960;50.908;4.204;2023-09-12T07:10:18;20.40;99.90
15717;DHT22;7960;50.908;4.204;2023-09-12T07:12:47;20.30;99.90
15717;DHT22;7960;50.908;4.204;2023-09-12T07:15:14;20.30;99.90
15717;DHT22;7960;50.908;4.204;2023-09-12T07:17:40;20.20;99.90
15717;DHT22;7960;50.908;4.204;2023-09-12T07:20:08;20.20;99.90
15717;DHT22;7960;50.908;4.204;2023-09-12T07:22:37;20.30;99.90
15717;DHT22;7960;50.908;4.204;2023-09-12T07:25:06;20.30;99.90
15717;DHT22;7960;50.908;4.204;2023-09-12T07:27:34;20.30;99.90
15717;DHT22;7960;50.908;4.204;2023-09-12T07:30:03;20.40;99.90
15717;DHT22;7960;50.908;4.204;2023-09-12T07:32:30;20.50;99.90
15717;DHT22;7960;50.908;4.204;2023-09-12T07:34:57;20.60;99.90
15717;DHT22;7960;50.908;4.204;2023-09-12T07:37:24;20.30;99.90
15717;DHT22;7960;50.908;4.204;2023-09-12T07:39:51;20.30;99.90
15717;DHT22;7960;50.908;4.204;2023-09-12T07:42:21;20.40;99.90
15717;DHT22;7960;50.908;4.204;2023-09-12T07:44:48;20.40;99.90
15717;DHT22;7960;50.908;4.204;2023-09-12T07:47:16;20.40;99.90
15717;DHT22;7960;50.908;4.204;2023-09-12T07:49:43;20.40;99.90
15717;DHT22;7960;50.908;4.204;2023-09-12T07:52:10;20.50;99.90
15717;DHT22;7960;50.908;4.204;2023-09-12T07:54:37;20.50;99.90
15717;DHT22;7960;50.908;4.204;2023-09-12T07:57:04;20.50;99.90
15717;DHT22;7960;50.908;4.204;2023-09-12T07:59:31;20.40;99.90
15717;DHT22;7960;50.908;4.204;2023-09-12T08:01:58;20.60;99.90
15717;DHT22;7960;50.908;4.204;2023-09-12T08:04:26;20.70;99.90
15717;DHT22;7960;50.908;4.204;2023-09-12T08:06:53;20.60;99.90
15717;DHT22;7960;50.908;4.204;2023-09-12T08:09:20;20.50;99.90
15717;DHT22;7960;50.908;4.204;2023-09-12T08:11:47;20.70;99.90
15717;DHT22;7960;50.908;4.204;2023-09-12T08:14:14;20.70;99.90
15717;DHT22;7960;50.908;4.204;2023-09-12T08:16:41;20.70;99.90
15717;DHT22;7960;50.908;4.204;2023-09-12T08:19:08;20.80;99.90
15717;DHT22;7960;50.908;4.204;2023-09-12T08:21:36;20.70;99.90
15717;DHT22;7960;50.908;4.204;2023-09-12T08:24:03;20.80;99.90
15717;DHT22;7960;50.908;4.204;2023-09-12T08:26:30;20.90;99.90
15717;DHT22;7960;50.908;4.204;2023-09-12T08:28:57;20.90;99.90
15717;DHT22;7960;50.908;4.204;2023-09-12T08:31:24;20.80;99.90
15717;DHT22;7960;50.908;4.204;2023-09-12T08:33:52;20.80;99.90
15717;DHT22;7960;50.908;4.204;2023-09-12T08:36:19;20.90;99.90
15717;DHT22;7960;50.908;4.204;2023-09-12T08:38:48;21.10;99.90
15717;DHT22;7960;50.908;4.204;2023-09-12T08:41:14;21.30;99.90
15717;DHT22;7960;50.908;4.204;2023-09-12T08:43:41;21.40;99.90
15717;DHT22;7960;50.908;4.204;2023-09-12T08:46:10;21.50;99.90
15717;DHT22;7960;50.908;4.204;2023-09-12T08:48:38;21.70;99.90
15717;DHT22;7960;50.908;4.204;2023-09-12T08:51:07;21.80;99.90
15717;DHT22;7960;50.908;4.204;2023-09-12T08:53:35;21.80;99.90
15717;DHT22;7960;50.908;4.204;2023-09-12T08:56:04;21.50;99.90
15717;DHT22;7960;50.908;4.204;2023-09-12T08:58:32;21.60;99.90
15717;DHT22;7960;50.908;4.204;2023-09-12T09:00:59;21.90;99.90
15717;DHT22;7960;50.908;4.204;2023-09-12T09:03:29;22.10;99.90
15717;DHT22;7960;50.908;4.204;2023-09-12T09:05:57;22.20;99.90
15717;DHT22;7960;50.908;4.204;2023-09-12T09:08:27;22.30;99.90
15717;DHT22;7960;50.908;4.204;2023-09-12T09:10:55;22.40;99.90
15717;DHT22;7960;50.908;4.204;2023-09-12T09:13:24;22.70;99.90
15717;DHT22;7960;50.908;4.204;2023-09-12T09:16:09;22.80;99.90
15717;DHT22;7960;50.908;4.204;2023-09-12T09:18:50;22.80;99.90
15717;DHT22;7960;50.908;4.204;2023-09-12T09:21:18;22.50;99.90
15717;DHT22;7960;50.908;4.204;2023-09-12T09:23:46;22.40;99.90
15717;DHT22;7960;50.908;4.204;2023-09-12T09:26:13;22.60;99.90
15717;DHT22;7960;50.908;4.204;2023-09-12T09:28:41;22.80;99.90
15717;DHT22;7960;50.908;4.204;2023-09-12T09:31:10;22.80;99.90
15717;DHT22;7960;50.908;4.204;2023-09-12T09:33:37;23.10;99.90
15717;DHT22;7960;50.908;4.204;2023-09-12T09:36:07;23.30;99.90
15717;DHT22;7960;50.908;4.204;2023-09-12T09:38:34;23.20;99.90
15717;DHT22;7960;50.908;4.204;2023-09-12T09:41:04;23.50;99.90
15717;DHT22;7960;50.908;4.204;2023-09-12T09:43:31;23.50;99.90
15717;DHT22;7960;50.908;4.204;2023-09-12T09:46:00;23.70;99.90
15717;DHT22;7960;50.908;4.204;2023-09-12T09:48:27;24.10;99.90
15717;DHT22;7960;50.908;4.204;2023-09-12T09:51:00;24.30;99.90
15717;DHT22;7960;50.908;4.204;2023-09-12T09:53:28;24.10;99.90
15717;DHT22;7960;50.908;4.204;2023-09-12T09:56:09;24.20;99.90
15717;DHT22;7960;50.908;4.204;2023-09-12T09:58:37;24.60;99.90
15717;DHT22;7960;50.908;4.204;2023-09-12T10:01:10;24.50;99.90
15717;DHT22;7960;50.908;4.204;2023-09-12T10:03:39;24.50;99.90
15717;DHT22;7960;50.908;4.204;2023-09-12T10:06:07;24.50;99.90
15717;DHT22;7960;50.908;4.204;2023-09-12T10:08:35;24.70;99.90
15717;DHT22;7960;50.908;4.204;2023-09-12T10:11:04;25.00;99.90
15717;DHT22;7960;50.908;4.204;2023-09-12T10:13:32;25.00;99.90
15717;DHT22;7960;50.908;4.204;2023-09-12T10:16:00;24.90;99.90
15717;DHT22;7960;50.908;4.204;2023-09-12T10:18:36;25.00;99.90
15717;DHT22;7960;50.908;4.204;2023-09-12T10:21:11;25.00;99.90
15717;DHT22;7960;50.908;4.204;2023-09-12T10:23:44;25.10;99.90
15717;DHT22;7960;50.908;4.204;2023-09-12T10:26:12;25.20;99.90
15717;DHT22;7960;50.908;4.204;2023-09-12T10:28:41;24.90;99.90
15717;DHT22;7960;50.908;4.204;2023-09-12T10:31:08;25.20;99.90
15717;DHT22;7960;50.908;4.204;2023-09-12T10:33:39;25.20;99.90
15717;DHT22;7960;50.908;4.204;2023-09-12T10:36:08;24.90;99.90
15717;DHT22;7960;50.908;4.204;2023-09-12T10:38:40;25.10;99.90
15717;DHT22;7960;50.908;4.204;2023-09-12T10:41:11;25.20;99.90
15717;DHT22;7960;50.908;4.204;2023-09-12T10:43:40;25.30;99.90
15717;DHT22;7960;50.908;4.204;2023-09-12T10:46:08;25.40;99.90
15717;DHT22;7960;50.908;4.204;2023-09-12T10:48:35;25.40;99.90
15717;DHT22;7960;50.908;4.204;2023-09-12T10:51:04;25.30;98.60
15717;DHT22;7960;50.908;4.204;2023-09-12T10:53:33;25.10;97.30
15717;DHT22;7960;50.908;4.204;2023-09-12T10:56:01;25.30;97.90
15717;DHT22;7960;50.908;4.204;2023-09-12T10:58:28;25.40;97.60
15717;DHT22;7960;50.908;4.204;2023-09-12T11:01:22;25.60;97.90
15717;DHT22;7960;50.908;4.204;2023-09-12T11:03:50;25.70;97.70
15717;DHT22;7960;50.908;4.204;2023-09-12T11:06:23;25.70;97.40
15717;DHT22;7960;50.908;4.204;2023-09-12T11:09:16;25.60;97.90
15717;DHT22;7960;50.908;4.204;2023-09-12T11:11:47;25.70;98.00
15717;DHT22;7960;50.908;4.204;2023-09-12T11:14:15;25.90;97.70
15717;DHT22;7960;50.908;4.204;2023-09-12T11:16:42;26.10;97.20
15717;DHT22;7960;50.908;4.204;2023-09-12T11:19:17;26.30;96.60
15717;DHT22;7960;50.908;4.204;2023-09-12T11:21:47;26.40;96.20
15717;DHT22;7960;50.908;4.204;2023-09-12T11:24:15;26.30;96.10
15717;DHT22;7960;50.908;4.204;2023-09-12T11:26:56;26.40;95.80
15717;DHT22;7960;50.908;4.204;2023-09-12T11:29:27;26.60;95.90
15717;DHT22;7960;50.908;4.204;2023-09-12T11:31:55;26.50;95.90
15717;DHT22;7960;50.908;4.204;2023-09-12T11:34:25;26.40;96.00
15717;DHT22;7960;50.908;4.204;2023-09-12T11:36:56;26.70;96.10
15717;DHT22;7960;50.908;4.204;2023-09-12T11:39:29;26.80;95.60
15717;DHT22;7960;50.908;4.204;2023-09-12T11:41:57;27.00;95.40
15717;DHT22;7960;50.908;4.204;2023-09-12T11:44:24;27.10;94.50
15717;DHT22;7960;50.908;4.204;2023-09-12T11:46:53;27.10;94.30
15717;DHT22;7960;50.908;4.204;2023-09-12T11:49:20;27.10;94.10
15717;DHT22;7960;50.908;4.204;2023-09-12T11:51:51;27.10;94.50
15717;DHT22;7960;50.908;4.204;2023-09-12T11:54:24;27.40;93.70
15717;DHT22;7960;50.908;4.204;2023-09-12T11:56:51;27.30;93.40
15717;DHT22;7960;50.908;4.204;2023-09-12T11:59:22;27.10;93.20
15717;DHT22;7960;50.908;4.204;2023-09-12T12:01:49;26.80;93.70
15717;DHT22;7960;50.908;4.204;2023-09-12T12:04:16;26.80;93.80
15717;DHT22;7960;50.908;4.204;2023-09-12T12:06:44;27.00;94.10
15717;DHT22;7960;50.908;4.204;2023-09-12T12:09:14;27.20;93.20
15717;DHT22;7960;50.908;4.204;2023-09-12T12:11:45;27.10;93.10
15717;DHT22;7960;50.908;4.204;2023-09-12T12:14:13;27.00;93.70
15717;DHT22;7960;50.908;4.204;2023-09-12T12:16:41;26.90;94.00
15717;DHT22;7960;50.908;4.204;2023-09-12T12:19:08;26.90;94.30
15717;DHT22;7960;50.908;4.204;2023-09-12T12:21:37;26.80;94.90
15717;DHT22;7960;50.908;4.204;2023-09-12T12:24:05;27.10;94.80
15717;DHT22;7960;50.908;4.204;2023-09-12T12:26:34;27.10;93.80
15717;DHT22;7960;50.908;4.204;2023-09-12T12:29:03;26.90;93.90
15717;DHT22;7960;50.908;4.204;2023-09-12T12:31:31;27.50;93.70
15717;DHT22;7960;50.908;4.204;2023-09-12T12:33:58;27.30;93.90
15717;DHT22;7960;50.908;4.204;2023-09-12T12:36:25;27.60;94.10
15717;DHT22;7960;50.908;4.204;2023-09-12T12:38:52;27.80;93.30
15717;DHT22;7960;50.908;4.204;2023-09-12T12:41:23;28.00;93.30
15717;DHT22;7960;50.908;4.204;2023-09-12T12:43:53;28.00;92.70
15717;DHT22;7960;50.908;4.204;2023-09-12T12:46:21;27.80;92.40
15717;DHT22;7960;50.908;4.204;2023-09-12T12:48:48;27.40;93.50
15717;DHT22;7960;50.908;4.204;2023-09-12T12:51:17;27.10;93.50
15717;DHT22;7960;50.908;4.204;2023-09-12T12:53:46;27.20;94.00
15717;DHT22;7960;50.908;4.204;2023-09-12T12:56:14;27.50;93.70
15717;DHT22;7960;50.908;4.204;2023-09-12T12:58:46;27.40;93.20
15717;DHT22;7960;50.908;4.204;2023-09-12T13:01:14;27.30;93.00
15717;DHT22;7960;50.908;4.204;2023-09-12T13:03:43;27.10;93.40
15717;DHT22;7960;50.908;4.204;2023-09-12T13:06:11;26.80;93.80
15717;DHT22;7960;50.908;4.204;2023-09-12T13:08:44;26.70;94.30
15717;DHT22;7960;50.908;4.204;2023-09-12T13:11:12;26.50;94.40
15717;DHT22;7960;50.908;4.204;2023-09-12T13:13:40;26.00;95.10
15717;DHT22;7960;50.908;4.204;2023-09-12T13:16:09;26.10;95.90
15717;DHT22;7960;50.908;4.204;2023-09-12T13:18:37;26.20;96.00
15717;DHT22;7960;50.908;4.204;2023-09-12T13:21:05;26.30;95.90
15717;DHT22;7960;50.908;4.204;2023-09-12T13:23:34;26.30;95.80
15717;DHT22;7960;50.908;4.204;2023-09-12T13:26:01;26.10;96.00
15717;DHT22;7960;50.908;4.204;2023-09-12T13:28:29;26.10;96.20
15717;DHT22;7960;50.908;4.204;2023-09-12T13:30:56;25.80;96.50
15717;DHT22;7960;50.908;4.204;2023-09-12T13:33:24;25.90;96.80
15717;DHT22;7960;50.908;4.204;2023-09-12T13:35:51;25.90;96.70
15717;DHT22;7960;50.908;4.204;2023-09-12T13:38:20;25.70;96.50
15717;DHT22;7960;50.908;4.204;2023-09-12T13:40:48;25.60;97.10
15717;DHT22;7960;50.908;4.204;2023-09-12T13:43:15;25.70;96.90
15717;DHT22;7960;50.908;4.204;2023-09-12T13:45:42;25.80;96.80
15717;DHT22;7960;50.908;4.204;2023-09-12T13:48:09;25.80;96.90
15717;DHT22;7960;50.908;4.204;2023-09-12T13:50:37;25.80;96.80
15717;DHT22;7960;50.908;4.204;2023-09-12T13:53:08;25.80;96.50
15717;DHT22;7960;50.908;4.204;2023-09-12T13:55:38;25.90;96.40
15717;DHT22;7960;50.908;4.204;2023-09-12T13:58:05;26.00;96.40
15717;DHT22;7960;50.908;4.204;2023-09-12T14:00:33;25.80;96.80
15717;DHT22;7960;50.908;4.204;2023-09-12T14:03:01;25.90;97.00
15717;DHT22;7960;50.908;4.204;2023-09-12T14:05:29;26.00;96.90
15717;DHT22;7960;50.908;4.204;2023-09-12T14:07:56;26.00;96.40
15717;DHT22;7960;50.908;4.204;2023-09-12T14:10:23;25.90;96.10
15717;DHT22;7960;50.908;4.204;2023-09-12T14:12:51;25.70;96.20
15717;DHT22;7960;50.908;4.204;2023-09-12T14:15:19;25.60;96.80
15717;DHT22;7960;50.908;4.204;2023-09-12T14:17:46;25.60;97.00
15717;DHT22;7960;50.908;4.204;2023-09-12T14:20:12;25.60;97.40
15717;DHT22;7960;50.908;4.204;2023-09-12T14:22:41;25.50;97.40
15717;DHT22;7960;50.908;4.204;2023-09-12T14:25:09;25.50;97.80
15717;DHT22;7960;50.908;4.204;2023-09-12T14:27:41;25.50;97.70
15717;DHT22;7960;50.908;4.204;2023-09-12T14:30:11;25.10;97.90
15717;DHT22;7960;50.908;4.204;2023-09-12T14:32:39;25.10;98.30
15717;DHT22;7960;50.908;4.204;2023-09-12T14:35:06;25.10;98.70
15717;DHT22;7960;50.908;4.204;2023-09-12T14:37:34;25.00;99.10
15717;DHT22;7960;50.908;4.204;2023-09-12T14:40:05;24.80;98.80
15717;DHT22;7960;50.908;4.204;2023-09-12T14:42:32;24.80;99.50
15717;DHT22;7960;50.908;4.204;2023-09-12T14:44:59;24.90;99.90
15717;DHT22;7960;50.908;4.204;2023-09-12T14:47:27;24.90;99.90
15717;DHT22;7960;50.908;4.204;2023-09-12T14:49:56;24.80;99.90
15717;DHT22;7960;50.908;4.204;2023-09-12T14:52:23;24.80;99.90
15717;DHT22;7960;50.908;4.204;2023-09-12T14:54:51;24.90;99.90
15717;DHT22;7960;50.908;4.204;2023-09-12T14:57:18;24.90;99.90
15717;DHT22;7960;50.908;4.204;2023-09-12T14:59:49;24.80;99.90
15717;DHT22;7960;50.908;4.204;2023-09-12T15:02:16;24.70;99.90
15717;DHT22;7960;50.908;4.204;2023-09-12T15:04:45;24.70;99.90
15717;DHT22;7960;50.908;4.204;2023-09-12T15:07:11;24.80;99.90
15717;DHT22;7960;50.908;4.204;2023-09-12T15:09:38;24.80;99.90
15717;DHT22;7960;50.908;4.204;2023-09-12T15:12:06;24.80;99.90
15717;DHT22;7960;50.908;4.204;2023-09-12T15:14:34;24.70;99.90
15717;DHT22;7960;50.908;4.204;2023-09-12T15:17:01;24.60;99.90
15717;DHT22;7960;50.908;4.204;2023-09-12T15:19:28;24.50;99.90
15717;DHT22;7960;50.908;4.204;2023-09-12T15:21:57;24.50;99.90
15717;DHT22;7960;50.908;4.204;2023-09-12T15:24:23;24.40;99.90
15717;DHT22;7960;50.908;4.204;2023-09-12T15:26:52;24.40;99.90
15717;DHT22;7960;50.908;4.204;2023-09-12T15:29:19;24.30;99.90
15717;DHT22;7960;50.908;4.204;2023-09-12T15:31:46;24.10;99.90
15717;DHT22;7960;50.908;4.204;2023-09-12T15:34:13;24.10;99.90
15717;DHT22;7960;50.908;4.204;2023-09-12T15:36:42;24.20;99.90
15717;DHT22;7960;50.908;4.204;2023-09-12T15:39:11;24.10;99.90
15717;DHT22;7960;50.908;4.204;2023-09-12T15:41:38;24.10;99.90
15717;DHT22;7960;50.908;4.204;2023-09-12T15:44:06;24.30;99.90
15717;DHT22;7960;50.908;4.204;2023-09-12T15:46:33;24.20;99.90
15717;DHT22;7960;50.908;4.204;2023-09-12T15:49:01;24.20;99.90
15717;DHT22;7960;50.908;4.204;2023-09-12T15:51:31;24.30;99.90
15717;DHT22;7960;50.908;4.204;2023-09-12T15:53:59;24.30;99.90